createdAt,value
2019-05-13T00:00:13.995Z,97481.51
2019-05-13T00:05:18.183Z,97488.41
2019-05-13T00:10:24.327Z,97494.06
2019-05-13T00:15:29.213Z,97492.92
2019-05-13T00:20:34.167Z,97493.95
2019-05-13T00:25:38.910Z,97503.46
2019-05-13T00:30:44.468Z,97499.61
2019-05-13T00:35:49.412Z,97497.42
2019-05-13T00:40:54.665Z,97502.69
2019-05-13T00:45:59.416Z,97499.33
2019-05-13T00:51:04.103Z,97504.32
2019-05-13T00:56:09.210Z,97494.64
2019-05-13T01:01:14.019Z,97495.22
2019-05-13T01:06:18.800Z,97484.37
2019-05-13T01:11:23.796Z,97480.05
2019-05-13T01:16:28.382Z,97468.83
2019-05-13T01:21:34.517Z,97478.39
2019-05-13T01:26:39.520Z,97486.53
2019-05-13T01:31:44.070Z,97483.64
2019-05-13T01:36:48.696Z,97484.31
2019-05-13T01:41:54.042Z,97501.23
2019-05-13T01:46:59.101Z,97504.27
2019-05-13T01:52:04.150Z,97505.02
2019-05-13T01:57:09.111Z,97501.44
2019-05-13T02:02:13.964Z,97504.80
2019-05-13T02:07:18.690Z,97497.12
2019-05-13T02:12:24.038Z,97498.67
2019-05-13T02:17:28.883Z,97492.23
2019-05-13T02:22:33.746Z,97489.33
2019-05-13T02:27:38.480Z,97500.95
2019-05-13T02:32:43.332Z,97510.33
2019-05-13T02:37:48.175Z,97507.75
2019-05-13T02:42:52.731Z,97515.45
2019-05-13T02:47:57.426Z,97515.74
2019-05-13T02:53:02.547Z,97524.47
2019-05-13T02:58:07.352Z,97521.95
2019-05-13T03:03:13.107Z,97526.96
2019-05-13T03:08:34.012Z,97543.80
2019-05-13T03:13:24.409Z,97550.72
2019-05-13T03:18:33.107Z,97549.09
2019-05-13T03:23:35.270Z,97545.72
2019-05-13T03:28:43.166Z,97544.75
2019-05-13T03:33:47.656Z,97552.95
2019-05-13T03:39:05.712Z,97557.41
2019-05-13T03:44:02.326Z,97554.84
2019-05-13T03:49:05.338Z,97557.02
2019-05-13T03:54:12.929Z,97570.03
2019-05-13T03:59:17.683Z,97577.11
2019-05-13T04:04:23.499Z,97575.99
2019-05-13T04:09:32.620Z,97582.02
2019-05-13T04:14:36.224Z,97581.79
2019-05-13T04:19:42.359Z,97579.22
2019-05-13T04:24:49.246Z,97590.43
2019-05-13T04:29:54.338Z,97595.38
2019-05-13T04:34:59.078Z,97597.92
2019-05-13T04:40:05.663Z,97605.23
2019-05-13T04:45:13.394Z,97614.50
2019-05-13T04:50:16.577Z,97609.88
2019-05-13T04:55:22.968Z,97621.28
2019-05-13T05:01:08.525Z,97620.40
2019-05-13T05:06:14.439Z,97623.11
2019-05-13T05:11:38.743Z,97614.31
2019-05-13T05:17:16.210Z,97620.69
2019-05-13T05:22:39.221Z,97606.22
2019-05-13T05:27:58.257Z,97606.36
2019-05-13T05:33:31.946Z,97601.20
2019-05-13T05:39:06.466Z,97606.25
2019-05-13T05:44:12.510Z,97599.44
2019-05-13T05:49:17.384Z,97600.83
2019-05-13T05:54:22.132Z,97599.06
2019-05-13T05:59:26.870Z,97596.97
2019-05-13T06:04:32.516Z,97598.27
2019-05-13T06:09:37.382Z,97595.52
2019-05-13T06:14:42.409Z,97590.11
2019-05-13T06:19:47.286Z,97593.27
2019-05-13T06:24:52.278Z,97596.31
2019-05-13T06:29:57.279Z,97609.55
2019-05-13T06:35:02.567Z,97615.83
2019-05-13T06:40:09.026Z,97630.16
2019-05-13T06:45:13.763Z,97632.85
2019-05-13T06:50:18.509Z,97637.93
2019-05-13T06:55:23.864Z,97629.87
2019-05-13T07:00:28.492Z,97627.02
2019-05-13T07:05:33.250Z,97620.52
2019-05-13T07:10:41.260Z,97624.31
2019-05-13T07:15:46.576Z,97633.70
2019-05-13T07:20:53.031Z,97629.28
2019-05-13T07:25:57.550Z,97633.65
2019-05-13T07:31:03.834Z,97646.40
2019-05-13T07:36:12.436Z,97636.14
2019-05-13T07:41:14.853Z,97634.61
2019-05-13T07:46:21.633Z,97647.16
2019-05-13T07:51:25.867Z,97637.48
2019-05-13T07:56:32.427Z,97632.91
2019-05-13T08:01:36.899Z,97622.51
2019-05-13T08:06:41.750Z,97641.14
2019-05-13T08:12:04.315Z,97640.04
2019-05-13T08:16:52.869Z,97639.78
2019-05-13T08:21:57.615Z,97639.55
2019-05-13T08:27:02.574Z,97647.20
2019-05-13T08:32:07.778Z,97638.14
2019-05-13T08:37:13.512Z,97634.28
2019-05-13T08:42:20.109Z,97635.69
2019-05-13T08:47:24.748Z,97636.94
2019-05-13T08:52:31.402Z,97635.96
2019-05-13T08:57:35.626Z,97638.59
2019-05-13T09:02:42.026Z,97634.98
2019-05-13T09:07:47.020Z,97630.04
2019-05-13T09:12:52.343Z,97623.86
2019-05-13T09:17:57.393Z,97623.87
2019-05-13T09:23:02.218Z,97629.06
2019-05-13T09:28:06.958Z,97628.03
2019-05-13T09:33:11.732Z,97622.72
2019-05-13T09:38:16.575Z,97630.09
2019-05-13T09:43:22.153Z,97608.18
2019-05-13T09:48:27.171Z,97615.80
2019-05-13T09:53:32.705Z,97607.15
2019-05-13T09:58:37.804Z,97584.52
2019-05-13T10:03:53.827Z,97577.94
2019-05-13T10:08:49.019Z,97580.80
2019-05-13T10:13:55.600Z,97585.94
2019-05-13T10:19:01.655Z,97577.80
2019-05-13T10:24:06.831Z,97579.64
2019-05-13T10:29:12.601Z,97594.30
2019-05-13T10:34:17.342Z,97589.14
2019-05-13T10:39:22.566Z,97589.06
2019-05-13T10:44:27.545Z,97606.61
2019-05-13T10:49:33.044Z,97616.67
2019-05-13T10:54:38.118Z,97628.30
2019-05-13T10:59:43.642Z,97624.44
2019-05-13T11:04:48.690Z,97617.80
2019-05-13T11:09:53.423Z,97626.27
2019-05-13T11:14:58.163Z,97633.58
2019-05-13T11:20:03.667Z,97619.84
2019-05-13T11:25:08.675Z,97620.95
2019-05-13T11:30:13.415Z,97601.55
2019-05-13T11:35:19.500Z,97592.83
2019-05-13T11:40:24.340Z,97590.47
2019-05-13T11:45:31.576Z,97579.80
2019-05-13T11:50:36.487Z,97578.06
2019-05-13T11:55:42.429Z,97577.83
2019-05-13T12:00:53.240Z,97570.14
2019-05-13T12:06:01.542Z,97573.90
2019-05-13T12:11:06.330Z,97582.16
2019-05-13T12:16:12.823Z,97579.22
2019-05-13T12:21:19.477Z,97579.25
2019-05-13T12:26:24.440Z,97574.81
2019-05-13T12:31:33.371Z,97557.41
2019-05-13T12:36:35.561Z,97562.33
2019-05-13T12:41:42.827Z,97561.16
2019-05-13T12:46:50.406Z,97546.25
2019-05-13T12:52:00.320Z,97537.64
2019-05-13T12:56:59.936Z,97538.03
2019-05-13T13:02:06.631Z,97532.66
2019-05-13T13:07:13.373Z,97530.05
2019-05-13T13:12:18.302Z,97528.32
2019-05-13T13:17:24.740Z,97517.55
2019-05-13T13:22:32.074Z,97518.45
2019-05-13T13:28:03.802Z,97517.06
2019-05-13T13:32:45.156Z,97499.88
2019-05-13T13:37:49.291Z,97493.62
2019-05-13T13:42:54.150Z,97487.66
2019-05-13T13:48:03.608Z,97495.09
2019-05-13T13:53:05.488Z,97500.63
2019-05-13T13:58:13.902Z,97494.75
2019-05-13T14:03:16.617Z,97495.09
2019-05-13T14:08:22.325Z,97502.33
2019-05-13T14:13:27.108Z,97497.75
2019-05-13T14:18:32.365Z,97481.87
2019-05-13T14:23:38.643Z,97478.45
2019-05-13T14:28:43.805Z,97466.72
2019-05-13T14:33:48.744Z,97470.20
2019-05-13T14:38:56.873Z,97470.38
2019-05-13T14:44:03.674Z,97465.45
2019-05-13T14:49:12.321Z,97451.56
2019-05-13T14:54:16.529Z,97446.02
2019-05-13T14:59:22.238Z,97449.42
2019-05-13T15:04:27.893Z,97449.30
2019-05-13T15:09:32.815Z,97445.19
2019-05-13T15:14:40.009Z,97442.18
2019-05-13T15:19:43.732Z,97429.08
2019-05-13T15:24:48.364Z,97431.77
2019-05-13T15:29:53.010Z,97432.55
2019-05-13T15:34:57.654Z,97430.32
2019-05-13T15:40:02.482Z,97430.69
2019-05-13T15:45:07.355Z,97430.39
2019-05-13T15:50:12.436Z,97424.01
2019-05-13T15:55:17.199Z,97437.23
2019-05-13T16:00:22.100Z,97434.33
2019-05-13T16:05:26.730Z,97428.96
2019-05-13T16:10:31.407Z,97442.85
2019-05-13T16:15:36.327Z,97442.96
2019-05-13T16:20:44.443Z,97438.78
2019-05-13T16:25:47.456Z,97441.59
2019-05-13T16:30:53.220Z,97446.84
2019-05-13T16:35:57.968Z,97459.02
2019-05-13T16:41:03.347Z,97461.87
2019-05-13T16:46:08.274Z,97453.77
2019-05-13T16:51:13.118Z,97445.09
2019-05-13T16:56:26.872Z,97434.59
2019-05-13T17:01:24.173Z,97445.58
2019-05-13T17:06:28.893Z,97449.38
2019-05-13T17:11:33.627Z,97469.40
2019-05-13T17:16:41.467Z,97474.36
2019-05-13T17:21:46.426Z,97467.09
2019-05-13T17:26:52.283Z,97469.61
2019-05-13T17:31:57.522Z,97476.47
2019-05-13T17:37:02.915Z,97490.59
2019-05-13T17:42:08.238Z,97496.58
2019-05-13T17:47:13.198Z,97501.84
2019-05-13T17:52:18.773Z,97493.20
2019-05-13T17:57:23.902Z,97497.80
2019-05-13T18:02:28.699Z,97500.52
2019-05-13T18:07:35.594Z,97499.84
2019-05-13T18:12:41.742Z,97506.08
2019-05-13T18:17:47.085Z,97503.36
2019-05-13T18:22:52.466Z,97495.20
2019-05-13T18:28:01.477Z,97492.03
2019-05-13T18:33:06.341Z,97488.08
2019-05-13T18:38:12.119Z,97479.69
2019-05-13T18:43:18.578Z,97488.45
2019-05-13T18:48:23.333Z,97493.78
2019-05-13T18:53:28.780Z,97486.42
2019-05-13T18:58:36.591Z,97491.80
2019-05-13T19:03:43.493Z,97487.58
2019-05-13T19:08:48.250Z,97490.42
2019-05-13T19:13:53.913Z,97490.14
2019-05-13T19:19:11.822Z,97498.92
2019-05-13T19:24:06.460Z,97496.28
2019-05-13T19:29:11.632Z,97496.68
2019-05-13T19:34:16.458Z,97511.04
2019-05-13T19:39:21.627Z,97506.14
2019-05-13T19:44:26.558Z,97506.05
2019-05-13T19:49:36.215Z,97511.12
2019-05-13T19:54:38.096Z,97509.13
2019-05-13T19:59:44.066Z,97506.31
2019-05-13T20:04:48.844Z,97499.37
2019-05-13T20:09:53.656Z,97500.44
2019-05-13T20:14:58.300Z,97498.92
2019-05-13T20:20:03.145Z,97497.75
2019-05-13T20:25:12.429Z,97504.88
2019-05-13T20:30:15.703Z,97498.45
2019-05-13T20:35:21.881Z,97495.81
2019-05-13T20:40:26.904Z,97489.66
2019-05-13T20:45:31.778Z,97486.63
2019-05-13T20:50:36.940Z,97492.56
2019-05-13T20:55:41.914Z,97488.34
2019-05-13T21:00:46.933Z,97495.98
2019-05-13T21:05:52.214Z,97476.36
2019-05-13T21:10:57.136Z,97437.81
2019-05-13T21:16:03.520Z,97423.13
2019-05-13T21:21:08.258Z,97434.55
2019-05-13T21:26:15.457Z,97427.42
2019-05-13T21:31:21.366Z,97413.52
2019-05-13T21:36:25.669Z,97413.11
2019-05-13T21:41:31.646Z,97406.53
2019-05-13T21:46:36.602Z,97422.46
2019-05-13T21:51:41.774Z,97415.30
2019-05-13T21:56:47.722Z,97400.75
2019-05-13T22:01:52.457Z,97398.15
2019-05-13T22:06:57.203Z,97386.31
2019-05-13T22:12:02.153Z,97383.81
2019-05-13T22:17:06.999Z,97382.70
2019-05-13T22:22:11.843Z,97387.33
2019-05-13T22:27:16.696Z,97395.62
2019-05-13T22:32:21.993Z,97407.83
2019-05-13T22:37:27.198Z,97414.23
2019-05-13T22:42:32.215Z,97414.06
2019-05-13T22:47:37.206Z,97422.56
2019-05-13T22:52:42.075Z,97412.77
2019-05-13T22:57:46.785Z,97392.72
2019-05-13T23:02:52.442Z,97405.19
2019-05-13T23:07:57.408Z,97397.84
2019-05-13T23:13:02.279Z,97364.16
2019-05-13T23:18:08.116Z,97367.88
2019-05-13T23:23:12.756Z,97397.96
2019-05-13T23:28:17.498Z,97398.33
2019-05-13T23:33:22.463Z,97411.64
2019-05-13T23:38:28.834Z,97402.09
2019-05-13T23:43:34.715Z,97383.37
2019-05-13T23:48:41.259Z,97380.60
2019-05-13T23:53:45.823Z,97373.50
2019-05-13T23:58:51.934Z,97379.27
